Time;durP1;ratioP1;P1;durP2;ratioP2;P2;SDS_P1;SDS_P2;PMS_P1;PMS_P2;Temp;Humidity;BMP_temperature;BMP_pressure;BME280_temperature;BME280_humidity;BME280_pressure;Samples;Min_cycle;Max_cycle;Signal;HPM_P1;HPM_P2
2022/05/15 00:01:46;;;;;;;;;;;;;;;13.19;56.63;96742.66;4881349;29;20069;-70
2022/05/15 00:04:12;;;;;;;;;;;;;;;13.16;56.66;96747.56;4881722;29;19965;-70
2022/05/15 00:06:38;;;;;;;;;;;;;;;13.14;56.66;96733.84;4869389;29;19971;-70
2022/05/15 00:09:04;;;;;;;;;;;;;;;13.07;56.37;96736.56;4881542;29;20469;-70
2022/05/15 00:11:30;;;;;;;;;;;;;;;13.02;56.95;96741.72;4881648;29;19967;-70
2022/05/15 00:13:57;;;;;;;;;;;;;;;12.98;56.89;96744.00;4876070;29;20383;-71
2022/05/15 00:16:23;;;;;;;;;;;;;;;12.95;56.96;96741.00;4881269;29;19977;-71
2022/05/15 00:18:50;;;;;;;;;;;;;;;12.93;57.46;96745.69;4880289;29;19959;-71
2022/05/15 00:21:17;;;;;;;;;;;;;;;12.92;57.00;96737.00;4887529;29;20341;-71
2022/05/15 00:23:43;;;;;;;;;;;;;;;12.90;57.24;96738.25;4891107;29;19964;-71
2022/05/15 00:26:09;;;;;;;;;;;;;;;12.90;56.99;96743.53;4885128;29;19985;-70
2022/05/15 00:28:35;;;;;;;;;;;;;;;12.88;56.98;96743.75;4883075;29;19963;-71
2022/05/15 00:31:02;;;;;;;;;;;;;;;12.87;56.99;96747.41;4894066;29;20100;-71
2022/05/15 00:33:28;;;;;;;;;;;;;;;12.84;57.15;96745.22;4894940;29;19959;-70
2022/05/15 00:35:54;;;;;;;;;;;;;;;12.81;57.74;96748.31;4887570;29;20023;-70
2022/05/15 00:38:20;;;;;;;;;;;;;;;12.80;57.14;96744.84;4889624;29;20016;-70
2022/05/15 00:40:47;;;;;;;;;;;;;;;12.79;57.50;96737.22;4891566;29;19963;-70
2022/05/15 00:43:14;;;;;;;;;;;;;;;12.79;57.55;96745.91;4894387;29;19963;-70
2022/05/15 00:45:39;;;;;;;;;;;;;;;12.78;57.73;96743.47;4888851;29;20444;-71
2022/05/15 00:48:06;;;;;;;;;;;;;;;12.77;56.93;96742.69;4888035;29;20012;-70
2022/05/15 00:50:33;;;;;;;;;;;;;;;12.77;57.76;96741.88;4887506;29;20410;-71
2022/05/15 00:53:02;;;;;;;;;;;;;;;12.74;58.07;96740.50;4894671;29;20320;-71
2022/05/15 00:55:35;;;;;;;;;;;;;;;12.72;58.27;96741.75;4884254;29;19974;-71
2022/05/15 00:58:04;;;;;;;;;;;;;;;12.68;58.75;96741.41;4893562;29;20313;-71
2022/05/15 01:00:31;;;;;;;;;;;;;;;12.65;58.48;96735.78;4884903;29;19975;-71
2022/05/15 01:03:04;;;;;;;;;;;;;;;12.61;58.77;96742.50;4887785;29;19973;-70
2022/05/15 01:05:32;;;;;;;;;;;;;;;12.56;58.71;96733.47;4893200;29;19959;-70
2022/05/15 01:07:58;;;;;;;;;;;;;;;12.53;58.07;96733.88;4890882;29;19969;-70
2022/05/15 01:10:24;;;;;;;;;;;;;;;12.50;58.77;96736.97;4885022;29;19982;-70
2022/05/15 01:12:51;;;;;;;;;;;;;;;12.46;59.14;96740.28;4887358;29;20367;-70
2022/05/15 01:15:20;;;;;;;;;;;;;;;12.43;59.06;96736.28;4888954;29;19973;-70
2022/05/15 01:17:46;;;;;;;;;;;;;;;12.40;59.40;96736.72;4882586;29;20322;-70
2022/05/15 01:20:13;;;;;;;;;;;;;;;12.36;59.53;96738.97;4880306;29;19968;-70
2022/05/15 01:22:40;;;;;;;;;;;;;;;12.33;59.05;96730.75;4879411;29;19991;-71
2022/05/15 01:25:16;;;;;;;;;;;;;;;12.29;59.13;96730.38;4880231;29;20425;-71
2022/05/15 01:27:45;;;;;;;;;;;;;;;12.27;59.83;96726.38;4879851;29;19962;-70
2022/05/15 01:30:11;;;;;;;;;;;;;;;12.25;60.07;96731.84;4880022;29;19958;-70
2022/05/15 01:32:37;;;;;;;;;;;;;;;12.19;60.09;96724.81;4879221;29;20326;-71
2022/05/15 01:35:03;;;;;;;;;;;;;;;12.16;60.20;96733.16;4879725;29;20023;-70
2022/05/15 01:37:29;;;;;;;;;;;;;;;12.11;60.72;96731.19;4879733;29;19959;-71
2022/05/15 01:39:55;;;;;;;;;;;;;;;12.08;60.51;96725.56;4879864;29;19958;-70
2022/05/15 01:42:21;;;;;;;;;;;;;;;12.04;60.47;96724.41;4880080;29;19971;-71
2022/05/15 01:44:46;;;;;;;;;;;;;;;12.00;61.00;96721.41;4879881;29;20324;-71
2022/05/15 01:47:12;;;;;;;;;;;;;;;11.95;61.02;96722.06;4878677;29;19968;-71
2022/05/15 01:49:38;;;;;;;;;;;;;;;11.92;60.71;96722.50;4878076;29;20037;-70
2022/05/15 01:52:04;;;;;;;;;;;;;;;11.91;60.58;96725.38;4879567;29;20328;-70
2022/05/15 01:54:30;;;;;;;;;;;;;;;11.91;60.60;96725.38;4879854;29;20052;-70
2022/05/15 01:56:56;;;;;;;;;;;;;;;11.91;60.70;96728.00;4879463;29;19975;-70
2022/05/15 01:59:22;;;;;;;;;;;;;;;11.88;61.13;96734.47;4878954;29;19996;-70
2022/05/15 02:01:48;;;;;;;;;;;;;;;11.86;61.21;96725.97;4878864;29;19974;-70
2022/05/15 02:04:14;;;;;;;;;;;;;;;11.83;61.29;96725.63;4879264;29;20015;-71
2022/05/15 02:06:40;;;;;;;;;;;;;;;11.79;61.47;96733.13;4879641;29;19970;-71
2022/05/15 02:09:06;;;;;;;;;;;;;;;11.75;61.47;96724.88;4878751;29;19960;-70
2022/05/15 02:11:32;;;;;;;;;;;;;;;11.72;61.21;96720.06;4879606;29;19966;-70
2022/05/15 02:13:58;;;;;;;;;;;;;;;11.68;61.60;96718.91;4879534;29;19968;-70
2022/05/15 02:16:24;;;;;;;;;;;;;;;11.66;61.94;96720.13;4879638;29;20450;-70
2022/05/15 02:18:50;;;;;;;;;;;;;;;11.64;62.09;96714.31;4879360;29;19970;-71
2022/05/15 02:21:16;;;;;;;;;;;;;;;11.61;62.02;96712.09;4879972;29;19984;-71
2022/05/15 02:23:42;;;;;;;;;;;;;;;11.57;62.39;96712.53;4886704;29;20050;-70
2022/05/15 02:26:08;;;;;;;;;;;;;;;11.54;61.81;96706.91;4879375;29;19965;-70
2022/05/15 02:28:34;;;;;;;;;;;;;;;11.51;62.06;96710.78;4879743;29;19962;-71
2022/05/15 02:31:00;;;;;;;;;;;;;;;11.50;62.00;96708.38;4879684;29;19993;-70
2022/05/15 02:33:25;;;;;;;;;;;;;;;11.48;62.44;96713.81;4879232;29;19971;-71
2022/05/15 02:35:51;;;;;;;;;;;;;;;11.46;62.58;96710.59;4878478;29;19980;-70
2022/05/15 02:38:17;;;;;;;;;;;;;;;11.43;62.56;96708.44;4878475;29;20486;-70
2022/05/15 02:40:43;;;;;;;;;;;;;;;11.40;62.79;96702.81;4879657;29;20360;-70
2022/05/15 02:43:09;;;;;;;;;;;;;;;11.35;62.25;96706.88;4879486;29;20025;-70
2022/05/15 02:45:35;;;;;;;;;;;;;;;11.30;62.74;96704.09;4879157;29;20002;-70
2022/05/15 02:48:01;;;;;;;;;;;;;;;11.29;62.91;96706.94;4878454;29;19958;-70
2022/05/15 02:53:11;;;;;;;;;;;;;;;11.24;62.65;96694.47;4879273;29;20330;-70
2022/05/15 02:55:37;;;;;;;;;;;;;;;11.22;62.99;96703.59;4879066;29;19981;-70
2022/05/15 02:58:03;;;;;;;;;;;;;;;11.21;63.24;96707.22;4879057;29;19962;-70
2022/05/15 03:00:29;;;;;;;;;;;;;;;11.17;63.16;96710.28;4881633;29;19972;-70
2022/05/15 03:02:55;;;;;;;;;;;;;;;11.15;63.45;96701.81;4879912;29;20018;-71
2022/05/15 03:05:21;;;;;;;;;;;;;;;11.14;63.35;96707.28;4878014;29;20409;-70
2022/05/15 03:07:47;;;;;;;;;;;;;;;11.13;62.96;96700.44;4882491;29;20308;-70
2022/05/15 03:10:15;;;;;;;;;;;;;;;11.11;63.08;96697.22;4882440;29;19970;-70
2022/05/15 03:12:40;;;;;;;;;;;;;;;11.09;63.76;96701.88;4882165;29;19962;-70
2022/05/15 03:15:07;;;;;;;;;;;;;;;11.08;63.81;96705.50;4882325;29;19962;-70
2022/05/15 03:17:34;;;;;;;;;;;;;;;11.06;63.84;96707.53;4884008;29;19983;-71
2022/05/15 03:20:04;;;;;;;;;;;;;;;11.03;63.11;96698.28;4882187;29;19989;-70
2022/05/15 03:22:30;;;;;;;;;;;;;;;11.01;63.70;96702.94;4889702;29;19985;-70
2022/05/15 03:24:56;;;;;;;;;;;;;;;10.99;63.93;96698.91;4876685;29;19972;-70
2022/05/15 03:27:22;;;;;;;;;;;;;;;10.95;64.50;96699.34;4892685;29;20409;-70
2022/05/15 03:29:47;;;;;;;;;;;;;;;10.94;63.72;96704.78;4891222;29;19964;-70
2022/05/15 03:32:13;;;;;;;;;;;;;;;10.91;64.06;96705.22;4896060;29;20003;-70
2022/05/15 03:34:39;;;;;;;;;;;;;;;10.90;64.04;96708.88;4890096;29;20016;-70
2022/05/15 03:37:05;;;;;;;;;;;;;;;10.88;64.08;96713.53;4885805;29;20342;-70
2022/05/15 03:39:31;;;;;;;;;;;;;;;10.87;64.07;96714.53;4892985;29;20335;-70
2022/05/15 03:41:57;;;;;;;;;;;;;;;10.85;63.81;96717.38;4893056;29;19959;-70
2022/05/15 03:44:23;;;;;;;;;;;;;;;10.82;64.09;96717.81;4891359;29;20018;-70
2022/05/15 03:46:48;;;;;;;;;;;;;;;10.81;64.03;96724.06;4877996;29;19966;-71
2022/05/15 03:49:14;;;;;;;;;;;;;;;10.79;64.03;96723.47;4889866;29;20008;-70
2022/05/15 03:51:41;;;;;;;;;;;;;;;10.79;64.57;96723.47;4891034;29;19966;-70
2022/05/15 03:54:08;;;;;;;;;;;;;;;10.77;64.28;96721.06;4889510;29;19959;-70
2022/05/15 03:56:52;;;;;;;;;;;;;;;10.77;64.54;96720.25;4891216;29;20465;-70
2022/05/15 03:59:19;;;;;;;;;;;;;;;10.75;64.02;96715.22;4887860;29;19964;-70
2022/05/15 04:01:45;;;;;;;;;;;;;;;10.75;64.34;96710.00;4897290;29;19964;-70
2022/05/15 04:04:11;;;;;;;;;;;;;;;10.76;64.41;96710.78;4890134;29;19994;-70
2022/05/15 04:06:38;;;;;;;;;;;;;;;10.75;64.21;96710.00;4889047;29;19968;-70
2022/05/15 04:09:04;;;;;;;;;;;;;;;10.76;64.76;96716.81;4884781;29;19962;-71
2022/05/15 04:11:29;;;;;;;;;;;;;;;10.79;64.68;96720.03;4890831;29;19967;-71
2022/05/15 04:13:55;;;;;;;;;;;;;;;10.79;64.35;96707.72;4889665;29;20047;-70
2022/05/15 04:16:21;;;;;;;;;;;;;;;10.84;63.80;96707.09;4895970;29;20018;-71
2022/05/15 04:18:47;;;;;;;;;;;;;;;10.86;64.23;96707.69;4884822;29;19966;-71
2022/05/15 04:21:13;;;;;;;;;;;;;;;10.88;64.32;96703.03;4889577;29;20033;-70
2022/05/15 04:23:39;;;;;;;;;;;;;;;10.91;64.50;96702.59;4881177;29;19969;-71
2022/05/15 04:26:05;;;;;;;;;;;;;;;10.95;64.16;96707.22;4881227;29;19967;-71
2022/05/15 04:28:31;;;;;;;;;;;;;;;11.03;64.80;96714.03;4879387;29;19957;-71
2022/05/15 04:30:57;;;;;;;;;;;;;;;11.12;64.60;96709.31;4880686;29;20050;-70
2022/05/15 04:33:22;;;;;;;;;;;;;;;11.22;64.29;96704.38;4881255;29;19960;-71
2022/05/15 04:35:48;;;;;;;;;;;;;;;11.34;63.90;96694.78;4880893;29;20000;-71
2022/05/15 04:38:14;;;;;;;;;;;;;;;11.51;64.09;96699.47;4880853;29;19969;-71
2022/05/15 04:40:40;;;;;;;;;;;;;;;11.71;64.20;96707.13;4880803;29;19965;-71
2022/05/15 04:43:07;;;;;;;;;;;;;;;11.92;63.87;96704.09;4879812;29;19959;-71
2022/05/15 04:45:32;;;;;;;;;;;;;;;12.19;63.15;96690.66;4880763;29;19971;-71
2022/05/15 04:47:58;;;;;;;;;;;;;;;12.45;62.38;96693.94;4880513;29;19963;-71
2022/05/15 04:50:24;;;;;;;;;;;;;;;12.66;61.15;96685.56;4880618;29;20325;-71
2022/05/15 04:52:50;;;;;;;;;;;;;;;12.86;61.31;96682.63;4880443;29;19973;-71
2022/05/15 04:55:16;;;;;;;;;;;;;;;13.12;60.18;96676.16;4879487;29;19958;-71
2022/05/15 04:57:42;;;;;;;;;;;;;;;13.38;59.64;96661.75;4874734;29;19978;-71
2022/05/15 05:00:10;;;;;;;;;;;;;;;13.67;58.80;96667.09;4887921;29;19992;-71
2022/05/15 05:02:36;;;;;;;;;;;;;;;13.95;57.73;96652.38;4880398;29;20433;-71
2022/05/15 05:05:02;;;;;;;;;;;;;;;14.24;56.68;96655.81;4880256;29;19972;-71
2022/05/15 05:07:29;;;;;;;;;;;;;;;14.53;57.39;96656.59;4880512;29;19967;-70
2022/05/15 05:09:55;;;;;;;;;;;;;;;14.83;57.02;96660.81;4879383;29;20462;-72
2022/05/15 05:12:21;;;;;;;;;;;;;;;15.12;55.95;96655.44;4879888;29;20424;-71
2022/05/15 05:14:47;;;;;;;;;;;;;;;15.38;55.03;96648.69;4880187;29;19965;-71
2022/05/15 05:17:14;;;;;;;;;;;;;;;15.63;54.26;96642.97;4880324;29;20009;-71
2022/05/15 05:19:40;;;;;;;;;;;;;;;15.84;53.29;96646.69;4880493;29;19970;-71
2022/05/15 05:22:06;;;;;;;;;;;;;;;16.01;53.10;96651.91;4883226;29;19997;-71
2022/05/15 05:24:31;;;;;;;;;;;;;;;16.17;52.69;96647.59;4887806;29;19966;-71
2022/05/15 05:26:57;;;;;;;;;;;;;;;16.32;52.66;96650.41;4883825;29;19970;-71
2022/05/15 05:29:24;;;;;;;;;;;;;;;16.44;52.14;96648.41;4870761;29;19971;-71
2022/05/15 05:31:50;;;;;;;;;;;;;;;16.60;51.83;96659.91;4886541;29;19973;-71
2022/05/15 05:34:15;;;;;;;;;;;;;;;16.77;51.36;96657.16;4888590;29;20440;-71
2022/05/15 05:36:41;;;;;;;;;;;;;;;16.95;51.02;96669.25;4890836;29;20013;-71
2022/05/15 05:39:08;;;;;;;;;;;;;;;17.04;51.19;96664.28;4884279;29;20046;-71
2022/05/15 05:41:34;;;;;;;;;;;;;;;17.14;50.21;96663.59;4878197;29;19958;-71
2022/05/15 05:44:00;;;;;;;;;;;;;;;17.30;50.21;96659.16;4884923;29;19961;-71
2022/05/15 05:46:28;;;;;;;;;;;;;;;17.52;50.10;96657.19;4887620;29;20408;-71
2022/05/15 05:48:55;;;;;;;;;;;;;;;17.59;48.85;96657.75;4874577;29;19957;-71
2022/05/15 05:51:21;;;;;;;;;;;;;;;17.70;48.80;96671.88;4889215;29;19969;-71
2022/05/15 05:53:47;;;;;;;;;;;;;;;17.82;48.70;96667.16;4871472;29;20000;-72
2022/05/15 05:56:13;;;;;;;;;;;;;;;17.99;49.00;96668.84;4881815;29;19985;-71
2022/05/15 05:58:39;;;;;;;;;;;;;;;18.13;48.53;96664.66;4884726;29;19970;-71
2022/05/15 06:01:05;;;;;;;;;;;;;;;18.32;48.16;96659.66;4891400;29;20433;-71
2022/05/15 06:06:16;;;;;;;;;;;;;;;18.67;47.69;96658.13;4875348;29;19967;-71
2022/05/15 06:08:42;;;;;;;;;;;;;;;18.87;46.46;96649.38;4885662;29;19969;-71
2022/05/15 06:11:08;;;;;;;;;;;;;;;19.00;47.63;96659.50;4890034;29;19960;-71
2022/05/15 06:13:35;;;;;;;;;;;;;;;19.14;46.99;96650.97;4888464;29;19968;-71
2022/05/15 06:16:01;;;;;;;;;;;;;;;19.39;47.60;96652.81;4887634;29;20328;-71
2022/05/15 06:18:27;;;;;;;;;;;;;;;19.73;47.34;96649.56;4888932;29;19957;-71
2022/05/15 06:20:53;;;;;;;;;;;;;;;20.04;46.68;96648.38;4890345;29;20052;-71
2022/05/15 06:23:19;;;;;;;;;;;;;;;20.31;46.20;96647.16;4878537;29;20330;-71
2022/05/15 06:25:45;;;;;;;;;;;;;;;20.48;46.35;96647.59;4879326;29;19968;-71
2022/05/15 06:28:11;;;;;;;;;;;;;;;20.55;45.85;96649.16;4876615;29;19957;-71
2022/05/15 06:30:37;;;;;;;;;;;;;;;20.64;46.07;96650.16;4879602;29;19966;-71
2022/05/15 06:33:04;;;;;;;;;;;;;;;20.73;45.92;96653.06;4879564;29;20004;-71
2022/05/15 06:35:30;;;;;;;;;;;;;;;20.72;45.95;96651.47;4882108;29;19955;-71
2022/05/15 06:37:56;;;;;;;;;;;;;;;20.76;45.47;96641.84;4881797;29;20033;-71
2022/05/15 06:40:21;;;;;;;;;;;;;;;20.58;45.33;96641.44;4882765;29;20058;-71
2022/05/15 06:42:47;;;;;;;;;;;;;;;20.37;45.40;96646.06;4883132;29;20433;-71
2022/05/15 06:45:13;;;;;;;;;;;;;;;20.34;46.00;96654.59;4882852;29;19971;-71
2022/05/15 06:47:39;;;;;;;;;;;;;;;20.52;46.29;96660.38;4882779;29;19960;-71
2022/05/15 06:50:07;;;;;;;;;;;;;;;20.55;45.59;96649.94;4881956;29;20050;-71
2022/05/15 06:52:32;;;;;;;;;;;;;;;20.38;45.50;96649.53;4882761;29;19964;-71
2022/05/15 06:54:58;;;;;;;;;;;;;;;20.41;45.84;96654.28;4883165;29;19965;-71
2022/05/15 06:57:31;;;;;;;;;;;;;;;20.61;45.92;96653.41;4882921;29;20343;-71
2022/05/15 06:59:57;;;;;;;;;;;;;;;20.87;45.61;96651.34;4882691;29;19971;-71
2022/05/15 07:02:24;;;;;;;;;;;;;;;21.15;45.40;96652.44;4865084;29;19968;-72
2022/05/15 07:04:52;;;;;;;;;;;;;;;21.37;44.67;96656.50;4876239;29;19959;-71
2022/05/15 07:07:18;;;;;;;;;;;;;;;21.53;44.43;96657.19;4879679;29;19963;-71
2022/05/15 07:09:44;;;;;;;;;;;;;;;21.62;44.28;96656.28;4876210;29;19959;-71
2022/05/15 07:12:10;;;;;;;;;;;;;;;21.77;44.48;96654.50;4868084;29;19970;-71
2022/05/15 07:14:36;;;;;;;;;;;;;;;21.88;43.81;96651.44;4882462;29;19989;-71
2022/05/15 07:17:02;;;;;;;;;;;;;;;21.87;43.31;96647.19;4881219;29;19978;-71
2022/05/15 07:19:28;;;;;;;;;;;;;;;21.75;43.35;96652.13;4882400;29;19978;-71
2022/05/15 07:21:54;;;;;;;;;;;;;;;21.55;43.32;96658.50;4882212;29;19982;-71
2022/05/15 07:24:22;;;;;;;;;;;;;;;21.34;43.65;96663.22;4881461;29;20497;-71
2022/05/15 07:26:49;;;;;;;;;;;;;;;21.21;44.67;96662.00;4881244;29;19964;-71
2022/05/15 07:29:15;;;;;;;;;;;;;;;21.22;44.93;96668.91;4882314;29;19958;-71
2022/05/15 07:31:41;;;;;;;;;;;;;;;21.16;44.17;96659.34;4881802;29;19956;-71
2022/05/15 07:34:07;;;;;;;;;;;;;;;21.00;45.12;96661.38;4882072;29;19961;-71
2022/05/15 07:36:33;;;;;;;;;;;;;;;21.00;44.56;96653.38;4881842;29;19982;-71
2022/05/15 07:38:59;;;;;;;;;;;;;;;21.05;45.21;96655.19;4879582;29;20417;-71
2022/05/15 07:41:25;;;;;;;;;;;;;;;21.36;45.20;96653.06;4881937;29;19965;-72
2022/05/15 07:43:51;;;;;;;;;;;;;;;21.70;44.33;96644.19;4882040;29;20009;-71
2022/05/15 07:46:17;;;;;;;;;;;;;;;21.96;44.02;96635.88;4876673;29;20014;-71
2022/05/15 07:48:43;;;;;;;;;;;;;;;22.12;43.19;96631.94;4881736;29;20445;-72
2022/05/15 07:51:09;;;;;;;;;;;;;;;22.21;42.41;96629.41;4881748;29;19959;-71
2022/05/15 07:53:37;;;;;;;;;;;;;;;22.27;42.64;96628.28;4881476;29;19971;-72
2022/05/15 07:56:03;;;;;;;;;;;;;;;22.39;42.22;96617.97;4881917;29;19957;-71
2022/05/15 07:58:30;;;;;;;;;;;;;;;22.53;42.59;96625.25;4879252;29;19958;-71
2022/05/15 08:00:56;;;;;;;;;;;;;;;22.62;42.04;96629.66;4881589;29;19978;-71
2022/05/15 08:03:22;;;;;;;;;;;;;;;22.77;42.37;96628.59;4881321;29;20051;-72
2022/05/15 08:08:32;;;;;;;;;;;;;;;23.02;40.98;96622.06;4881346;29;19956;-71
2022/05/15 08:10:59;;;;;;;;;;;;;;;23.01;41.30;96622.38;4878278;29;19962;-71
2022/05/15 08:13:26;;;;;;;;;;;;;;;22.98;41.93;96625.63;4877338;29;19960;-71
2022/05/15 08:15:52;;;;;;;;;;;;;;;22.92;41.63;96624.09;4873480;29;19964;-71
2022/05/15 08:23:47;;;;;;;;;;;;;;;23.09;41.77;96629.72;4890024;29;19965;-71
2022/05/15 08:26:13;;;;;;;;;;;;;;;23.25;41.89;96630.25;4895001;29;19956;-71
2022/05/15 08:28:39;;;;;;;;;;;;;;;23.34;41.38;96623.13;4891255;29;19970;-71
2022/05/15 08:31:06;;;;;;;;;;;;;;;23.22;40.88;96617.47;4888038;29;20409;-71
2022/05/15 08:33:32;;;;;;;;;;;;;;;22.99;41.18;96627.97;4892139;29;19954;-71
2022/05/15 08:35:59;;;;;;;;;;;;;;;22.94;41.44;96628.06;4876805;29;20438;-71
2022/05/15 08:38:25;;;;;;;;;;;;;;;22.95;41.49;96626.19;4894361;29;19978;-72
2022/05/15 08:41:00;;;;;;;;;;;;;;;22.97;41.56;96622.13;4889758;29;20323;-71
2022/05/15 08:43:41;;;;;;;;;;;;;;;23.15;40.22;96617.06;4885964;29;19959;-71
2022/05/15 08:46:29;;;;;;;;;;;;;;;23.35;40.19;96613.22;4890277;29;20312;-71
2022/05/15 08:49:01;;;;;;;;;;;;;;;23.54;40.07;96613.13;4870162;29;20420;-72
2022/05/15 08:51:28;;;;;;;;;;;;;;;23.70;40.01;96612.53;4893578;29;19958;-72
2022/05/15 08:53:54;;;;;;;;;;;;;;;23.84;40.58;96628.63;4889477;29;19962;-71
2022/05/15 08:56:20;;;;;;;;;;;;;;;23.97;40.02;96615.53;4893959;29;20344;-71
2022/05/15 08:58:49;;;;;;;;;;;;;;;24.04;41.31;96632.78;4888621;29;19971;-71
2022/05/15 09:01:17;;;;;;;;;;;;;;;24.00;38.95;96617.59;4887065;29;19969;-72
2022/05/15 09:03:43;;;;;;;;;;;;;;;23.97;38.89;96623.56;4891683;29;20299;-72
2022/05/15 09:06:15;;;;;;;;;;;;;;;23.99;39.12;96624.06;4890778;29;19995;-71
2022/05/15 09:09:01;;;;;;;;;;;;;;;24.00;38.87;96618.41;4872744;29;19965;-71
2022/05/15 09:11:32;;;;;;;;;;;;;;;23.85;39.02;96624.84;4873686;29;19964;-71
2022/05/15 09:14:07;;;;;;;;;;;;;;;23.87;38.65;96616.50;4879455;29;20368;-72
2022/05/15 09:16:34;;;;;;;;;;;;;;;23.63;38.59;96622.06;4872974;29;20443;-71
2022/05/15 09:19:06;;;;;;;;;;;;;;;23.53;39.88;96624.94;4890057;29;19956;-72
2022/05/15 09:21:32;;;;;;;;;;;;;;;23.50;39.80;96624.44;4891169;29;20007;-71
2022/05/15 09:24:05;;;;;;;;;;;;;;;23.66;40.54;96624.91;4889436;29;20334;-71
2022/05/15 09:26:42;;;;;;;;;;;;;;;23.82;39.34;96611.28;4893593;29;19969;-72
2022/05/15 09:29:18;;;;;;;;;;;;;;;23.89;39.43;96608.97;4888137;29;20379;-72
2022/05/15 09:31:44;;;;;;;;;;;;;;;23.97;39.95;96610.94;4885957;29;19970;-71
2022/05/15 09:34:19;;;;;;;;;;;;;;;24.09;39.78;96605.88;4888231;29;20335;-71
2022/05/15 09:36:46;;;;;;;;;;;;;;;24.09;37.84;96602.41;4884798;29;19970;-71
2022/05/15 09:39:12;;;;;;;;;;;;;;;23.97;39.34;96608.28;4894182;29;19980;-72
2022/05/15 09:44:30;;;;;;;;;;;;;;;24.07;39.24;96610.72;4880343;29;19966;-71
2022/05/15 09:47:00;;;;;;;;;;;;;;;24.24;40.11;96615.47;4885700;29;19962;-71
2022/05/15 09:49:28;;;;;;;;;;;;;;;24.44;40.10;96622.28;4885189;29;19956;-72
2022/05/15 09:51:55;;;;;;;;;;;;;;;24.50;38.68;96604.19;4887881;29;19971;-72
2022/05/15 09:54:42;;;;;;;;;;;;;;;24.51;36.91;96587.03;4889704;29;20421;-71
2022/05/15 09:57:14;;;;;;;;;;;;;;;24.65;38.63;96597.66;4881106;29;19973;-72
2022/05/15 09:59:40;;;;;;;;;;;;;;;24.70;38.75;96592.97;4884828;29;19953;-71
2022/05/15 10:02:16;;;;;;;;;;;;;;;24.70;37.62;96584.94;4889905;29;19955;-72
2022/05/15 10:04:46;;;;;;;;;;;;;;;24.76;37.45;96593.66;4887976;29;20363;-71
2022/05/15 10:07:27;;;;;;;;;;;;;;;24.82;37.09;96588.94;4892579;29;19965;-71
2022/05/15 10:09:53;;;;;;;;;;;;;;;25.01;37.72;96580.69;4873151;29;19963;-72
2022/05/15 10:12:30;;;;;;;;;;;;;;;25.17;37.59;96581.88;4880447;29;19996;-72
2022/05/15 10:15:08;;;;;;;;;;;;;;;25.39;37.14;96575.69;4881744;29;22070;-72
2022/05/15 10:17:40;;;;;;;;;;;;;;;25.51;35.39;96573.22;4890475;29;19984;-71
2022/05/15 10:20:19;;;;;;;;;;;;;;;25.61;36.68;96588.25;4891585;29;19967;-72
2022/05/15 10:22:47;;;;;;;;;;;;;;;25.55;35.20;96580.63;4890541;29;19992;-72
2022/05/15 10:25:16;;;;;;;;;;;;;;;25.41;34.15;96570.81;4898328;29;19959;-72
2022/05/15 10:27:46;;;;;;;;;;;;;;;25.42;37.66;96591.19;4888506;29;19964;-72
2022/05/15 10:30:19;;;;;;;;;;;;;;;25.59;36.68;96585.06;4886526;29;19958;-74
2022/05/15 10:32:45;;;;;;;;;;;;;;;25.62;36.27;96578.28;4872486;29;19958;-72
2022/05/15 10:35:15;;;;;;;;;;;;;;;25.61;35.46;96569.44;4890996;29;19960;-72
2022/05/15 10:37:58;;;;;;;;;;;;;;;25.60;34.45;96559.00;4893073;29;19986;-71
2022/05/15 10:40:29;;;;;;;;;;;;;;;25.72;35.96;96569.94;4892321;29;19960;-71
2022/05/15 10:43:14;;;;;;;;;;;;;;;25.85;35.11;96554.78;4892507;29;19960;-72
2022/05/15 10:45:50;;;;;;;;;;;;;;;25.84;34.33;96545.16;4891943;29;19966;-72
2022/05/15 10:48:34;;;;;;;;;;;;;;;25.85;34.53;96549.41;4893259;29;19961;-71
2022/05/15 10:51:03;;;;;;;;;;;;;;;25.84;33.49;96542.47;4886747;29;19966;-72
2022/05/15 10:59:26;;;;;;;;;;;;;;;26.27;33.82;96529.09;4881629;29;19964;-71
2022/05/15 11:01:57;;;;;;;;;;;;;;;26.48;36.79;96544.56;4889626;29;20335;-71
2022/05/15 11:04:35;;;;;;;;;;;;;;;26.59;32.04;96521.63;4891361;29;19981;-71
2022/05/15 11:07:05;;;;;;;;;;;;;;;26.76;33.49;96528.88;4893468;29;19957;-72
2022/05/15 11:09:49;;;;;;;;;;;;;;;26.89;33.97;96519.81;4880499;29;19960;-72
2022/05/15 11:12:21;;;;;;;;;;;;;;;27.08;34.35;96524.03;4873890;29;19963;-71
2022/05/15 11:14:55;;;;;;;;;;;;;;;27.25;32.32;96518.59;4882664;29;19986;-72
2022/05/15 11:17:21;;;;;;;;;;;;;;;27.40;33.61;96522.63;4889298;29;19974;-72
2022/05/15 11:19:47;;;;;;;;;;;;;;;27.64;33.37;96523.94;4891668;29;19976;-71
2022/05/15 11:22:32;;;;;;;;;;;;;;;27.69;31.44;96513.75;4884378;29;19985;-72
2022/05/15 11:25:13;;;;;;;;;;;;;;;27.57;30.22;96527.13;4879094;29;19965;-72
2022/05/15 11:27:39;;;;;;;;;;;;;;;27.39;30.45;96515.69;4881189;29;20327;-71
2022/05/15 11:30:10;;;;;;;;;;;;;;;27.25;32.35;96532.06;4881185;29;19963;-72
2022/05/15 11:32:41;;;;;;;;;;;;;;;27.25;31.70;96520.50;4880086;29;19979;-72
2022/05/15 11:35:16;;;;;;;;;;;;;;;27.22;31.32;96524.63;4881924;29;20352;-72
2022/05/15 11:37:44;;;;;;;;;;;;;;;27.03;31.24;96516.13;4880168;29;19976;-72
2022/05/15 11:40:29;;;;;;;;;;;;;;;27.02;31.08;96509.16;4872867;29;19961;-71
2022/05/15 11:42:55;;;;;;;;;;;;;;;27.07;32.20;96519.78;4881775;29;19960;-71
2022/05/15 11:45:28;;;;;;;;;;;;;;;27.29;33.66;96524.13;4880339;29;19962;-72
2022/05/15 11:47:57;;;;;;;;;;;;;;;27.36;31.46;96513.63;4879996;29;20335;-72
2022/05/15 11:50:26;;;;;;;;;;;;;;;27.36;30.52;96504.75;4881474;29;19970;-72
2022/05/15 11:52:53;;;;;;;;;;;;;;;27.38;31.91;96511.41;4881456;29;19970;-72
2022/05/15 11:55:40;;;;;;;;;;;;;;;27.59;32.12;96510.66;4881088;29;19963;-71
2022/05/15 11:58:30;;;;;;;;;;;;;;;27.90;30.89;96497.63;4881508;29;19974;-72
2022/05/15 12:01:01;;;;;;;;;;;;;;;28.09;29.96;96494.47;4880623;29;19962;-71
2022/05/15 12:03:47;;;;;;;;;;;;;;;28.01;29.70;96499.91;4881709;29;19967;-72
2022/05/15 12:06:18;;;;;;;;;;;;;;;28.11;30.37;96504.91;4869369;29;20309;-72
2022/05/15 12:08:49;;;;;;;;;;;;;;;28.32;29.97;96497.59;4881288;29;19964;-72
2022/05/15 12:11:17;;;;;;;;;;;;;;;28.32;27.75;96486.00;4881779;29;19960;-72
2022/05/15 12:13:46;;;;;;;;;;;;;;;28.19;28.63;96487.09;4881151;29;19954;-72
2022/05/15 12:16:17;;;;;;;;;;;;;;;28.21;28.30;96487.56;4880402;29;19953;-71
2022/05/15 12:18:43;;;;;;;;;;;;;;;28.25;29.69;96483.84;4881172;29;19976;-72
2022/05/15 12:21:09;;;;;;;;;;;;;;;28.41;29.97;96486.72;4883703;29;19989;-72
2022/05/15 12:23:36;;;;;;;;;;;;;;;28.56;29.49;96485.34;4891768;29;19961;-72
2022/05/15 12:26:13;;;;;;;;;;;;;;;28.36;26.77;96481.53;4887450;29;19959;-72
2022/05/15 12:28:57;;;;;;;;;;;;;;;28.29;28.73;96482.06;4888565;29;20022;-73
2022/05/15 12:32:06;;;;;;;;;;;;;;;28.12;29.66;96488.41;4878944;29;19964;-72
2022/05/15 12:34:37;;;;;;;;;;;;;;;27.91;nan;96483.03;4885797;29;20361;-72
2022/05/15 12:37:08;;;;;;;;;;;;;;;27.87;28.86;96478.66;4873833;29;20409;-72
2022/05/15 12:39:36;;;;;;;;;;;;;;;27.97;29.77;96485.53;4892824;29;19962;-71
2022/05/15 12:42:07;;;;;;;;;;;;;;;28.11;28.67;96478.75;4891089;29;19967;-72
2022/05/15 12:44:34;;;;;;;;;;;;;;;28.35;28.93;96479.97;4881965;29;19959;-71
2022/05/15 12:47:01;;;;;;;;;;;;;;;28.57;28.34;96475.34;4883975;29;19966;-72
2022/05/15 12:49:32;;;;;;;;;;;;;;;28.69;27.80;96472.66;4893281;29;20325;-71
2022/05/15 12:52:15;;;;;;;;;;;;;;;28.81;28.47;96480.78;4894606;29;19977;-72
2022/05/15 12:54:41;;;;;;;;;;;;;;;28.69;28.64;96478.84;4894481;29;19965;-72
2022/05/15 12:57:10;;;;;;;;;;;;;;;28.43;26.80;96473.72;4880993;29;19954;-72
2022/05/15 12:59:38;;;;;;;;;;;;;;;28.36;29.27;96469.97;4878447;29;19963;-71
2022/05/15 13:02:13;;;;;;;;;;;;;;;28.56;29.51;96474.56;4876312;29;20302;-71
2022/05/15 13:04:44;;;;;;;;;;;;;;;28.81;28.72;96464.59;4887350;29;20420;-72
2022/05/15 13:07:10;;;;;;;;;;;;;;;29.03;28.91;96459.88;4892204;29;20445;-72
2022/05/15 13:09:36;;;;;;;;;;;;;;;29.08;27.80;96459.63;4885663;29;20065;-71
2022/05/15 13:12:03;;;;;;;;;;;;;;;28.84;26.89;96455.81;4884574;29;19962;-72
2022/05/15 13:14:33;;;;;;;;;;;;;;;28.76;28.08;96450.50;4893702;29;19972;-71
2022/05/15 13:16:59;;;;;;;;;;;;;;;28.37;27.45;96441.84;4888683;29;19961;-71